Time;durP1;ratioP1;P1;durP2;ratioP2;P2;SDS_P1;SDS_P2;PMS_P1;PMS_P2;Temp;Humidity;BMP_temperature;BMP_pressure;BME280_temperature;BME280_humidity;BME280_pressure;Samples;Min_cycle;Max_cycle;Signal;HPM_P1;HPM_P2
2023/04/12 01:33:38;;;;;;;625.97;601.07;;;8.10;99.90;;;;;;6356486;22;20767;-77
2023/04/12 01:36:11;;;;;;;597.50;574.80;;;8.00;99.90;;;;;;6337455;22;20395;-78
2023/04/12 01:38:39;;;;;;;621.50;597.70;;;8.00;99.90;;;;;;6338392;22;20400;-80
2023/04/12 01:41:08;;;;;;;596.70;574.63;;;8.00;99.90;;;;;;6337927;22;20464;-79
2023/04/12 01:43:41;;;;;;;636.93;611.27;;;8.00;99.90;;;;;;6338009;22;20803;-79
2023/04/12 01:46:08;;;;;;;589.80;567.63;;;8.00;99.90;;;;;;6338158;22;20399;-78
2023/04/12 01:48:36;;;;;;;639.30;613.23;;;8.00;99.90;;;;;;6337862;22;20412;-79
2023/04/12 01:51:06;;;;;;;646.33;620.23;;;8.00;99.90;;;;;;6338228;22;20405;-79
2023/04/12 01:53:46;;;;;;;476.20;461.13;;;8.00;99.90;;;;;;6337724;22;20433;-79
2023/04/12 01:56:15;;;;;;;526.07;508.47;;;8.00;99.90;;;;;;6337572;22;20400;-79
2023/04/12 01:58:44;;;;;;;485.00;469.40;;;8.00;99.90;;;;;;6337680;22;20409;-79
2023/04/12 02:01:12;;;;;;;496.40;480.30;;;8.00;99.90;;;;;;6337921;22;20429;-78
2023/04/12 02:03:42;;;;;;;473.03;457.77;;;8.00;99.90;;;;;;6338112;22;20432;-78
2023/04/12 02:06:09;;;;;;;495.37;479.97;;;7.90;99.90;;;;;;6337518;22;20419;-79
2023/04/12 02:08:36;;;;;;;338.77;329.03;;;8.00;99.90;;;;;;6337960;22;20408;-79
2023/04/12 02:11:09;;;;;;;379.63;368.70;;;7.90;99.90;;;;;;6337971;22;20408;-79
2023/04/12 02:13:35;;;;;;;120.97;116.57;;;8.00;99.90;;;;;;6337774;22;20432;-79
2023/04/12 02:16:03;;;;;;;130.27;125.90;;;7.90;99.90;;;;;;6341684;22;20499;-79
2023/04/12 02:18:30;;;;;;;170.23;164.93;;;7.90;99.90;;;;;;6338159;22;20473;-79
2023/04/12 02:20:58;;;;;;;131.00;126.77;;;7.90;99.90;;;;;;6336263;22;20428;-78
2023/04/12 02:23:25;;;;;;;309.60;300.20;;;7.90;99.90;;;;;;6337471;22;21001;-79
2023/04/12 02:25:52;;;;;;;59.23;56.87;;;7.90;99.90;;;;;;6337789;22;20412;-79
2023/04/12 02:28:18;;;;;;;58.67;56.33;;;7.90;99.90;;;;;;6337964;22;20409;-78
2023/04/12 02:30:45;;;;;;;15.37;14.57;;;7.90;99.90;;;;;;6337880;22;20441;-79
2023/04/12 02:33:14;;;;;;;10.37;9.47;;;8.00;99.90;;;;;;6337250;22;21001;-79
2023/04/12 02:35:41;;;;;;;45.60;43.73;;;7.90;99.90;;;;;;6337612;22;20414;-79
2023/04/12 02:38:09;;;;;;;78.37;75.53;;;7.90;99.90;;;;;;6337851;22;20499;-79
2023/04/12 02:40:39;;;;;;;148.03;143.33;;;7.90;99.90;;;;;;6337790;22;20436;-79
2023/04/12 02:43:06;;;;;;;372.27;361.37;;;7.90;99.90;;;;;;6347994;22;20431;-79
2023/04/12 02:45:57;;;;;;;609.33;587.43;;;7.80;99.90;;;;;;6337549;22;20412;-79
2023/04/12 02:48:24;;;;;;;680.43;650.93;;;7.80;99.90;;;;;;6337592;22;20428;-78
2023/04/12 02:50:51;;;;;;;713.53;677.97;;;7.80;99.90;;;;;;6337394;22;20411;-79
2023/04/12 02:53:20;;;;;;;718.47;680.97;;;7.70;99.90;;;;;;6337595;22;20460;-78
2023/04/12 02:55:47;;;;;;;716.00;677.53;;;7.70;99.90;;;;;;6337454;22;20487;-79
2023/04/12 02:58:14;;;;;;;734.50;690.60;;;7.80;99.90;;;;;;6337295;22;20440;-78
2023/04/12 03:00:42;;;;;;;736.27;688.70;;;7.70;99.90;;;;;;6337120;22;20432;-78
2023/04/12 03:03:11;;;;;;;735.60;690.30;;;7.70;99.90;;;;;;6336935;22;20428;-78
2023/04/12 03:05:38;;;;;;;743.60;695.60;;;7.70;99.90;;;;;;6337406;22;20788;-78
2023/04/12 03:08:05;;;;;;;735.87;689.50;;;7.70;99.90;;;;;;6337450;22;20409;-79
2023/04/12 03:10:33;;;;;;;734.33;686.20;;;7.70;99.90;;;;;;6337605;22;20408;-78
2023/04/12 03:13:04;;;;;;;731.07;681.00;;;7.70;99.90;;;;;;6337676;22;20519;-78
2023/04/12 03:15:30;;;;;;;737.43;685.77;;;7.70;99.90;;;;;;6337343;22;20735;-78
2023/04/12 03:17:57;;;;;;;732.50;679.20;;;7.70;99.90;;;;;;6337450;22;20439;-79
2023/04/12 03:20:27;;;;;;;739.40;684.87;;;7.70;99.90;;;;;;6336844;22;20491;-79
2023/04/12 03:23:23;;;;;;;746.17;692.27;;;7.70;99.90;;;;;;6337020;22;20464;-79
2023/04/12 03:25:52;;;;;;;752.03;698.70;;;7.70;99.90;;;;;;6241071;23;20478;-79
2023/04/12 03:28:20;;;;;;;744.93;691.80;;;7.70;99.90;;;;;;6314811;22;20439;-78
2023/04/12 03:30:51;;;;;;;727.30;674.77;;;7.70;99.90;;;;;;6309165;22;20405;-79
2023/04/12 03:33:18;;;;;;;739.93;683.47;;;7.70;99.90;;;;;;6336905;22;20750;-75
2023/04/12 03:35:46;;;;;;;740.83;686.27;;;7.70;99.90;;;;;;6347021;22;20947;-79
2023/04/12 03:38:13;;;;;;;734.03;677.97;;;7.70;99.90;;;;;;6336058;22;20427;-78
2023/04/12 03:41:05;;;;;;;733.43;677.00;;;7.70;99.90;;;;;;6337315;22;20408;-78
2023/04/12 03:43:47;;;;;;;738.30;681.80;;;7.70;99.90;;;;;;6337268;22;20503;-78
2023/04/12 03:46:15;;;;;;;734.33;677.17;;;7.70;99.90;;;;;;6337078;22;20480;-79
2023/04/12 03:48:42;;;;;;;731.00;675.50;;;7.70;99.90;;;;;;6336656;22;20409;-78
2023/04/12 03:51:11;;;;;;;727.70;672.53;;;7.70;99.90;;;;;;6337186;22;20414;-79
2023/04/12 03:53:37;;;;;;;731.77;677.40;;;7.70;99.90;;;;;;6336915;22;20439;-78
2023/04/12 03:56:07;;;;;;;723.77;670.70;;;7.70;99.90;;;;;;6337060;22;20440;-78
2023/04/12 03:58:34;;;;;;;720.03;668.27;;;7.70;99.90;;;;;;6336942;22;20409;-78
2023/04/12 04:01:04;;;;;;;719.63;667.27;;;7.70;99.90;;;;;;6336740;22;20519;-78
2023/04/12 04:03:33;;;;;;;721.47;669.27;;;7.70;99.90;;;;;;6337398;22;20436;-78
2023/04/12 04:06:00;;;;;;;717.77;666.60;;;7.70;99.90;;;;;;6337094;22;20416;-78
2023/04/12 04:08:27;;;;;;;708.93;658.30;;;7.70;99.90;;;;;;6336649;22;20501;-78
2023/04/12 04:10:55;;;;;;;707.47;657.47;;;7.70;99.90;;;;;;6337225;22;20998;-78
2023/04/12 04:13:23;;;;;;;714.20;663.10;;;7.80;99.90;;;;;;6344768;22;20931;-78
2023/04/12 04:15:56;;;;;;;726.47;672.33;;;7.80;99.90;;;;;;6368094;22;20419;-78
2023/04/12 04:18:48;;;;;;;730.93;678.27;;;7.80;99.90;;;;;;6368565;22;20859;-78
2023/04/12 04:21:48;;;;;;;733.23;677.43;;;7.80;99.90;;;;;;6379017;22;20499;-78
2023/04/12 04:24:17;;;;;;;727.73;669.97;;;7.70;99.90;;;;;;6356274;22;20867;-78
2023/04/12 04:29:27;;;;;;;752.57;692.47;;;7.70;99.90;;;;;;6294855;22;20754;-78
2023/04/12 04:31:56;;;;;;;740.07;682.07;;;7.70;99.90;;;;;;6347038;22;20401;-79
2023/04/12 04:34:47;;;;;;;769.10;709.87;;;7.70;99.90;;;;;;6336419;22;20943;-79
2023/04/12 04:37:16;;;;;;;762.37;700.97;;;7.70;99.90;;;;;;6337131;22;20414;-78
2023/04/12 04:39:43;;;;;;;755.60;694.80;;;7.70;99.90;;;;;;6336107;22;20404;-79
2023/04/12 04:42:33;;;;;;;732.57;673.47;;;7.70;99.90;;;;;;6336580;22;20830;-79
2023/04/12 04:45:03;;;;;;;723.40;664.63;;;7.70;99.90;;;;;;6315118;22;21056;-79
2023/04/12 04:47:33;;;;;;;713.27;654.20;;;7.70;99.90;;;;;;6339002;22;20975;-79
2023/04/12 04:50:40;;;;;;;720.80;662.67;;;7.70;99.90;;;;;;6339067;22;20811;-78
2023/04/12 04:53:07;;;;;;;710.23;655.80;;;7.70;99.90;;;;;;6243347;22;20437;-79
2023/04/12 04:55:33;;;;;;;712.67;657.67;;;7.70;99.90;;;;;;6321758;22;20761;-78
2023/04/12 04:58:00;;;;;;;711.70;655.70;;;7.70;99.90;;;;;;6339167;22;20442;-78
2023/04/12 05:00:29;;;;;;;717.57;661.53;;;7.70;99.90;;;;;;6339188;22;20803;-79
2023/04/12 05:02:56;;;;;;;725.93;668.77;;;7.70;99.90;;;;;;6338137;22;20436;-78
2023/04/12 05:05:22;;;;;;;733.33;676.17;;;7.70;99.90;;;;;;6338356;22;20415;-78
2023/04/12 05:07:49;;;;;;;734.17;672.47;;;7.70;99.90;;;;;;6338664;22;20413;-78
2023/04/12 05:10:19;;;;;;;734.57;676.40;;;7.70;99.90;;;;;;6338492;22;20963;-78
2023/04/12 05:12:46;;;;;;;741.53;682.63;;;7.60;99.90;;;;;;6337997;22;20415;-79
2023/04/12 05:15:19;;;;;;;732.87;676.47;;;7.60;99.90;;;;;;6338898;22;20415;-82
2023/04/12 05:17:49;;;;;;;751.57;691.93;;;7.70;99.90;;;;;;6338541;22;20393;-78
2023/04/12 05:20:17;;;;;;;743.87;683.90;;;7.70;99.90;;;;;;6337874;22;21068;-77
2023/04/12 05:22:44;;;;;;;743.87;683.47;;;7.70;99.90;;;;;;6338071;22;20439;-78
2023/04/12 05:25:12;;;;;;;741.60;682.13;;;7.70;99.90;;;;;;6338716;22;20803;-77
2023/04/12 05:27:42;;;;;;;734.97;679.67;;;7.70;99.90;;;;;;6338691;22;20753;-78
2023/04/12 05:30:12;;;;;;;731.23;674.43;;;7.70;99.90;;;;;;6338325;22;20412;-78
2023/04/12 05:32:39;;;;;;;745.53;685.73;;;7.70;99.90;;;;;;6338004;22;20404;-78
2023/04/12 05:35:10;;;;;;;746.20;687.57;;;7.70;99.90;;;;;;6337444;22;20412;-78
2023/04/12 05:37:39;;;;;;;757.53;694.73;;;7.70;99.90;;;;;;6338235;22;20399;-78
2023/04/12 05:40:08;;;;;;;753.33;689.80;;;7.70;99.90;;;;;;6338780;22;20450;-78
2023/04/12 05:42:35;;;;;;;758.90;693.87;;;7.70;99.90;;;;;;6348121;22;20432;-78
2023/04/12 05:45:17;;;;;;;762.17;696.13;;;7.80;99.90;;;;;;6338502;22;20413;-78
2023/04/12 05:47:44;;;;;;;754.77;689.23;;;7.80;99.90;;;;;;6337448;22;20418;-78
2023/04/12 05:50:15;;;;;;;764.67;696.87;;;7.80;99.90;;;;;;6338646;22;20461;-77
2023/04/12 05:52:42;;;;;;;774.47;706.87;;;7.80;99.90;;;;;;6338365;22;20389;-78
2023/04/12 05:55:09;;;;;;;763.33;699.87;;;7.80;99.90;;;;;;6337176;22;20416;-78
2023/04/12 05:57:36;;;;;;;758.27;693.17;;;7.90;99.90;;;;;;6337612;22;20487;-78
2023/04/12 06:00:12;;;;;;;773.17;705.83;;;7.90;99.90;;;;;;6337708;22;20436;-77
2023/04/12 06:03:20;;;;;;;758.97;694.60;;;7.90;99.90;;;;;;6337183;22;20416;-78
2023/04/12 06:05:48;;;;;;;760.40;696.20;;;7.90;99.90;;;;;;6338327;22;20480;-78
2023/04/12 06:08:15;;;;;;;746.33;686.53;;;7.90;99.90;;;;;;6337609;22;20436;-78
2023/04/12 06:10:42;;;;;;;747.57;688.17;;;7.90;99.90;;;;;;6338400;22;20431;-78
2023/04/12 06:13:09;;;;;;;751.17;691.47;;;7.90;99.90;;;;;;6337521;22;20436;-78
2023/04/12 06:15:36;;;;;;;753.87;693.67;;;7.90;99.90;;;;;;6337320;22;20415;-78
2023/04/12 06:18:03;;;;;;;754.63;694.20;;;7.90;99.90;;;;;;6337603;22;20408;-78
2023/04/12 06:20:30;;;;;;;727.03;673.73;;;8.00;99.90;;;;;;6337876;22;20404;-78
2023/04/12 06:22:58;;;;;;;733.97;679.07;;;8.00;99.90;;;;;;6337962;22;20949;-78
2023/04/12 06:25:25;;;;;;;731.07;674.17;;;8.00;99.90;;;;;;6338121;22;20408;-78
2023/04/12 06:27:52;;;;;;;715.07;663.57;;;8.00;99.90;;;;;;6338225;22;20414;-78
2023/04/12 06:30:20;;;;;;;708.13;656.83;;;8.10;99.90;;;;;;6337939;22;20982;-77
2023/04/12 06:32:47;;;;;;;706.57;658.77;;;8.10;99.90;;;;;;6338208;22;20404;-78
2023/04/12 06:35:14;;;;;;;716.57;667.20;;;8.20;99.90;;;;;;6338246;22;20820;-78
2023/04/12 06:37:41;;;;;;;674.37;635.70;;;8.20;99.90;;;;;;6337770;22;20899;-78
2023/04/12 06:40:12;;;;;;;706.07;659.27;;;8.20;99.90;;;;;;6338048;22;20896;-84
2023/04/12 06:42:39;;;;;;;725.23;675.53;;;8.30;99.90;;;;;;6337336;22;20417;-78
2023/04/12 06:45:09;;;;;;;668.60;631.10;;;8.30;99.90;;;;;;6337783;22;20461;-78
2023/04/12 06:47:36;;;;;;;666.70;631.13;;;8.30;99.90;;;;;;6338145;22;20412;-78
2023/04/12 06:50:08;;;;;;;685.37;644.97;;;8.20;99.90;;;;;;6338290;22;20500;-78
2023/04/12 06:52:34;;;;;;;689.83;647.87;;;8.30;99.90;;;;;;6337857;22;20408;-78
2023/04/12 06:55:01;;;;;;;689.30;648.23;;;8.30;99.90;;;;;;6337640;22;20415;-78
2023/04/12 06:57:29;;;;;;;718.00;668.23;;;8.40;99.90;;;;;;6338268;22;20726;-78
2023/04/12 06:59:56;;;;;;;701.70;657.03;;;8.50;99.90;;;;;;6336458;22;20412;-78
2023/04/12 07:02:23;;;;;;;714.70;666.23;;;8.60;99.90;;;;;;6336732;22;20538;-78
2023/04/12 07:04:52;;;;;;;662.80;626.33;;;8.70;99.90;;;;;;6336816;22;20771;-78
2023/04/12 07:07:20;;;;;;;666.57;628.57;;;8.70;99.90;;;;;;6336663;22;20427;-78
2023/04/12 07:09:47;;;;;;;664.80;628.13;;;8.70;99.90;;;;;;6337285;22;20444;-78
2023/04/12 07:12:14;;;;;;;683.10;642.50;;;8.60;99.90;;;;;;6337139;22;20404;-78
2023/04/12 07:14:42;;;;;;;703.90;657.27;;;8.70;99.90;;;;;;6336671;22;20518;-78
2023/04/12 07:17:09;;;;;;;682.60;640.03;;;8.70;99.90;;;;;;6336821;22;20416;-78
2023/04/12 07:19:36;;;;;;;712.97;664.07;;;8.80;99.90;;;;;;6337187;22;20408;-78
2023/04/12 07:22:03;;;;;;;716.73;666.07;;;8.80;99.90;;;;;;6336855;22;20513;-78
2023/04/12 07:24:30;;;;;;;713.20;664.23;;;8.90;99.90;;;;;;6337182;22;20482;-78
2023/04/12 07:26:57;;;;;;;718.53;668.57;;;9.00;99.90;;;;;;6309312;22;20416;-78
2023/04/12 07:29:24;;;;;;;697.63;654.43;;;9.00;99.90;;;;;;6347843;22;20404;-78
2023/04/12 12:15:53;;;;;;;13.33;2.40;;;16.80;67.80;;;;;;6327501;22;20448;-90
2023/04/12 13:16:12;;;;;;;11.20;2.50;;;22.20;34.70;;;;;;6353189;22;20446;-82
2023/04/12 13:18:49;;;;;;;11.93;2.60;;;21.90;28.40;;;;;;6370098;22;20394;-83
2023/04/12 13:21:26;;;;;;;15.37;2.97;;;21.80;30.10;;;;;;6370166;22;20395;-85
2023/04/12 13:23:59;;;;;;;13.43;2.50;;;20.30;34.40;;;;;;6345898;22;20431;-83
2023/04/12 13:26:40;;;;;;;11.83;2.43;;;20.10;33.00;;;;;;6348796;22;20439;-83
2023/04/12 13:34:12;;;;;;;9.03;2.40;;;18.20;38.70;;;;;;6328431;22;20439;-78
2023/04/12 13:36:39;;;;;;;6.50;1.77;;;17.60;38.40;;;;;;6337739;22;20511;-79
2023/04/12 13:39:10;;;;;;;10.27;2.40;;;17.00;44.90;;;;;;6338427;22;20435;-82
2023/04/12 13:41:37;;;;;;;10.53;2.30;;;16.20;49.70;;;;;;6321678;22;20449;-79
2023/04/12 13:44:04;;;;;;;10.77;2.10;;;16.10;49.60;;;;;;6338441;22;20739;-79
2023/04/12 13:46:31;;;;;;;17.10;2.10;;;16.60;48.80;;;;;;6337630;22;20489;-79
2023/04/12 13:48:58;;;;;;;11.33;2.57;;;16.60;44.90;;;;;;6338710;22;20494;-79
2023/04/12 13:51:27;;;;;;;7.83;1.90;;;16.40;49.80;;;;;;6338658;22;20441;-79
2023/04/12 13:53:54;;;;;;;13.90;2.23;;;17.10;49.00;;;;;;6338238;22;20447;-80
2023/04/12 13:56:21;;;;;;;12.63;2.57;;;16.50;43.40;;;;;;6338234;22;20441;-79
2023/04/12 13:58:48;;;;;;;6.60;1.57;;;15.80;50.90;;;;;;6338158;22;20492;-80
2023/04/12 14:01:16;;;;;;;8.20;1.37;;;14.20;57.30;;;;;;6338225;22;20411;-80
2023/04/12 14:03:43;;;;;;;9.53;2.53;;;12.80;67.60;;;;;;6310520;22;20436;-79
2023/04/12 14:06:10;;;;;;;7.70;2.67;;;11.30;99.90;;;;;;6338164;22;20440;-78
2023/04/12 14:08:38;;;;;;;6.67;1.10;;;10.50;99.90;;;;;;6338486;22;20436;-78
2023/04/12 14:11:07;;;;;;;9.33;1.90;;;9.80;99.90;;;;;;6338683;22;20405;-80
2023/04/12 14:13:38;;;;;;;7.50;1.83;;;9.20;99.90;;;;;;6338214;22;20452;-78
2023/04/12 14:16:06;;;;;;;4.60;2.10;;;9.20;99.90;;;;;;6309674;22;20408;-77
2023/04/12 14:18:34;;;;;;;8.97;2.87;;;9.60;99.90;;;;;;6336962;22;20416;-78
2023/04/12 14:21:02;;;;;;;7.10;2.43;;;10.70;99.90;;;;;;6338122;22;20408;-78
2023/04/12 14:23:29;;;;;;;7.43;2.17;;;11.00;99.90;;;;;;6337291;22;20808;-78
2023/04/12 14:25:57;;;;;;;7.50;1.80;;;10.90;99.90;;;;;;6337301;22;20499;-78
2023/04/12 14:28:29;;;;;;;6.60;1.50;;;11.30;99.90;;;;;;6337451;22;20415;-79
2023/04/12 14:30:56;;;;;;;5.73;1.80;;;12.00;99.90;;;;;;6337860;22;20475;-78
2023/04/12 14:33:23;;;;;;;11.00;1.60;;;12.90;99.90;;;;;;6337551;22;20515;-79
2023/04/12 14:35:52;;;;;;;6.97;1.60;;;13.60;99.90;;;;;;6337975;22;20528;-78
2023/04/12 14:38:35;;;;;;;8.20;2.00;;;13.40;99.00;;;;;;6338255;22;20750;-89
2023/04/12 14:41:07;;;;;;;9.97;1.60;;;13.00;97.20;;;;;;6348317;22;20413;-78
2023/04/12 14:43:34;;;;;;;7.60;2.00;;;12.40;95.50;;;;;;6337927;22;21001;-78
2023/04/12 14:46:01;;;;;;;10.23;1.70;;;12.20;98.00;;;;;;6337383;22;20919;-77
2023/04/12 14:48:28;;;;;;;6.93;1.50;;;12.10;99.00;;;;;;6338046;22;20408;-78
2023/04/12 14:50:55;;;;;;;10.67;1.40;;;12.60;96.50;;;;;;6337334;22;20488;-78
2023/04/12 14:53:22;;;;;;;6.23;1.37;;;13.30;92.30;;;;;;6337962;22;20512;-78
2023/04/12 14:55:50;;;;;;;6.63;1.23;;;13.80;90.10;;;;;;6337618;22;20444;-78
2023/04/12 14:58:18;;;;;;;7.53;1.60;;;14.10;85.60;;;;;;6337583;22;20442;-77
2023/04/12 15:00:45;;;;;;;8.93;1.70;;;14.10;88.40;;;;;;6310259;22;20508;-78
2023/04/12 15:03:12;;;;;;;12.13;2.20;;;13.80;80.40;;;;;;6337257;22;20459;-79
2023/04/12 15:05:39;;;;;;;6.03;1.47;;;13.30;82.50;;;;;;6337106;22;20416;-77
2023/04/12 15:08:06;;;;;;;5.17;1.20;;;13.00;85.90;;;;;;6337453;22;20409;-77
2023/04/12 15:10:33;;;;;;;6.37;1.87;;;12.90;87.50;;;;;;6337681;22;20409;-78
2023/04/12 15:13:00;;;;;;;5.37;1.80;;;12.00;93.10;;;;;;6337474;22;20505;-80
2023/04/12 15:15:28;;;;;;;6.13;1.50;;;12.10;94.10;;;;;;6337351;22;20415;-80
2023/04/12 15:17:55;;;;;;;6.10;1.47;;;13.00;92.60;;;;;;6337646;22;20504;-78
2023/04/12 15:20:21;;;;;;;6.40;1.63;;;13.20;92.20;;;;;;6337386;22;20492;-78
2023/04/12 15:22:48;;;;;;;5.73;1.60;;;13.00;90.30;;;;;;6337246;22;20449;-78
2023/04/12 15:25:15;;;;;;;6.03;1.40;;;13.20;85.70;;;;;;6337568;22;20416;-79
2023/04/12 15:27:42;;;;;;;5.13;1.43;;;13.00;84.70;;;;;;6310427;22;20502;-78
2023/04/12 15:30:14;;;;;;;6.00;1.37;;;13.40;90.90;;;;;;6336959;22;20413;-79
2023/04/12 15:32:42;;;;;;;4.90;1.40;;;13.30;85.40;;;;;;6308963;22;20427;-79
2023/04/12 15:35:11;;;;;;;5.97;1.43;;;13.70;88.10;;;;;;6336949;22;20409;-78
2023/04/12 15:37:39;;;;;;;4.67;1.23;;;14.10;82.70;;;;;;6337375;22;20411;-78
2023/04/12 15:40:12;;;;;;;4.20;1.10;;;14.20;80.80;;;;;;6337662;22;20750;-78
2023/04/12 15:42:40;;;;;;;6.10;1.10;;;13.80;76.70;;;;;;6337780;22;20395;-78
2023/04/12 15:45:09;;;;;;;5.13;1.30;;;14.00;74.80;;;;;;6336853;22;20454;-78
2023/04/12 15:47:36;;;;;;;4.93;1.10;;;14.00;72.70;;;;;;6337127;22;20413;-77
2023/04/12 15:50:07;;;;;;;4.87;0.90;;;14.30;71.10;;;;;;6337331;22;20465;-77
2023/04/12 15:52:34;;;;;;;6.40;1.30;;;13.40;68.90;;;;;;6346585;22;20796;-80
2023/04/12 15:55:03;;;;;;;5.30;1.60;;;12.80;75.10;;;;;;6336990;22;20187;-81
2023/04/12 15:57:30;;;;;;;6.73;1.30;;;12.20;73.80;;;;;;6337201;22;20583;-81
2023/04/12 16:00:00;;;;;;;4.80;1.30;;;11.90;77.50;;;;;;6336871;22;21002;-81
2023/04/12 16:02:27;;;;;;;5.20;1.20;;;11.60;68.90;;;;;;6307268;22;20412;-80
2023/04/12 16:04:55;;;;;;;4.63;1.10;;;11.30;71.50;;;;;;6335888;22;20428;-80
2023/04/12 16:07:24;;;;;;;8.30;1.20;;;11.20;74.60;;;;;;6335983;22;20420;-79
2023/04/12 16:09:51;;;;;;;4.93;1.10;;;11.20;74.60;;;;;;6336696;22;20495;-79
2023/04/12 16:12:17;;;;;;;5.10;1.10;;;11.10;78.00;;;;;;6336821;22;20785;-79
2023/04/12 16:14:44;;;;;;;4.10;0.93;;;10.90;74.40;;;;;;6336231;22;20519;-78
2023/04/12 16:17:11;;;;;;;4.00;1.00;;;10.70;75.90;;;;;;6336840;22;20495;-79
2023/04/12 16:19:38;;;;;;;3.87;1.00;;;10.70;73.90;;;;;;6336551;22;20408;-79
2023/04/12 16:22:05;;;;;;;4.27;0.97;;;10.70;74.10;;;;;;6335445;22;20408;-80
2023/04/12 16:24:33;;;;;;;4.40;1.10;;;11.00;77.50;;;;;;6336487;22;20451;-79
2023/04/12 16:27:00;;;;;;;4.63;1.17;;;11.40;76.40;;;;;;6336438;22;20423;-80
2023/04/12 16:29:27;;;;;;;4.23;1.00;;;11.80;68.40;;;;;;6336717;22;20515;-79
2023/04/12 16:31:55;;;;;;;4.60;1.37;;;12.60;70.70;;;;;;6337063;22;20408;-78
2023/04/12 16:34:22;;;;;;;4.20;1.50;;;14.00;65.30;;;;;;6347142;22;20489;-78
2023/04/12 16:36:50;;;;;;;3.93;1.00;;;15.50;59.10;;;;;;6336878;22;20408;-78
2023/04/12 16:39:17;;;;;;;5.40;0.80;;;16.40;52.50;;;;;;6336462;22;20425;-78
2023/04/12 16:41:46;;;;;;;4.43;1.17;;;16.30;44.00;;;;;;6337209;22;20415;-78
2023/04/12 16:44:16;;;;;;;5.53;1.07;;;16.50;42.40;;;;;;6336827;22;20755;-79
2023/04/12 16:46:44;;;;;;;5.03;1.10;;;16.90;45.50;;;;;;6335841;22;20398;-78
2023/04/12 16:49:11;;;;;;;5.20;1.13;;;17.00;42.40;;;;;;6336916;22;20462;-78
2023/04/12 16:51:38;;;;;;;3.70;0.80;;;16.40;39.50;;;;;;6337294;22;20779;-78
2023/04/12 16:54:05;;;;;;;4.80;1.10;;;16.30;40.90;;;;;;6336339;22;20443;-78
2023/04/12 16:56:32;;;;;;;8.07;1.27;;;16.50;38.60;;;;;;6336516;22;20408;-78
2023/04/12 16:59:00;;;;;;;5.57;1.10;;;16.80;38.10;;;;;;6336944;22;20432;-78
2023/04/12 17:01:27;;;;;;;4.27;1.33;;;17.20;39.30;;;;;;6336590;22;20421;-78
2023/04/12 17:03:53;;;;;;;5.07;1.07;;;16.90;35.30;;;;;;6336768;22;20457;-78
2023/04/12 17:06:20;;;;;;;6.40;1.20;;;16.70;38.60;;;;;;6336088;22;20904;-79
2023/04/12 17:08:47;;;;;;;4.00;0.80;;;16.00;38.80;;;;;;6337010;22;20405;-78
2023/04/12 17:11:15;;;;;;;6.63;1.27;;;15.80;38.70;;;;;;6309532;22;20413;-79
2023/04/12 17:13:43;;;;;;;4.37;1.00;;;15.80;42.10;;;;;;6336416;22;20432;-78
2023/04/12 17:16:14;;;;;;;5.63;1.20;;;15.90;42.30;;;;;;6336481;22;20422;-78
2023/04/12 17:18:42;;;;;;;4.50;1.03;;;15.90;40.60;;;;;;6337260;22;20418;-78
2023/04/12 17:21:11;;;;;;;4.20;1.00;;;15.40;41.60;;;;;;6336970;22;20421;-78
2023/04/12 17:23:38;;;;;;;5.90;1.03;;;15.30;45.20;;;;;;6337132;22;20962;-77
2023/04/12 17:26:26;;;;;;;6.20;2.20;;;15.50;42.20;;;;;;6336722;22;20794;-77
2023/04/12 17:28:55;;;;;;;4.77;1.00;;;16.00;41.30;;;;;;6336918;22;20392;-78
2023/04/12 17:31:25;;;;;;;4.20;0.97;;;16.20;38.70;;;;;;6309097;22;20414;-78
2023/04/12 17:33:53;;;;;;;4.97;1.23;;;16.30;37.00;;;;;;6336368;22;20777;-78
2023/04/12 17:36:20;;;;;;;4.50;1.50;;;15.90;39.10;;;;;;6336849;22;20408;-78
2023/04/12 17:38:49;;;;;;;5.33;1.47;;;14.80;43.90;;;;;;6336593;22;20427;-78
2023/04/12 17:41:16;;;;;;;5.10;1.37;;;13.70;48.00;;;;;;6337466;22;20409;-78
2023/04/12 17:43:45;;;;;;;3.90;1.00;;;12.80;54.40;;;;;;6336781;22;20425;-78
2023/04/12 17:59:41;;;;;;;4.15;1.38;;;12.10;59.60;;;;;;6233441;22;2032800;-80
2023/04/12 18:02:09;;;;;;;4.00;1.00;;;9.70;82.80;;;;;;6283443;22;20238;-77
2023/04/12 18:04:42;;;;;;;4.20;1.33;;;9.50;88.90;;;;;;6257825;22;20435;-78
2023/04/12 18:07:12;;;;;;;4.30;1.30;;;9.30;91.10;;;;;;6251426;22;20985;-78
2023/04/12 18:09:43;;;;;;;5.10;1.30;;;9.20;91.50;;;;;;6252743;22;20422;-79
2023/04/12 18:12:11;;;;;;;7.50;1.20;;;9.10;91.10;;;;;;6253694;22;20394;-80
2023/04/12 18:14:40;;;;;;;4.73;1.30;;;9.00;91.70;;;;;;6252450;22;20510;-78
2023/04/12 18:17:08;;;;;;;4.43;1.50;;;8.90;93.70;;;;;;6262513;22;20498;-79
2023/04/12 18:19:37;;;;;;;4.30;1.30;;;8.70;96.50;;;;;;6263116;22;20469;-79
2023/04/12 18:22:16;;;;;;;3.90;1.20;;;8.50;97.50;;;;;;6263403;22;20494;-79
2023/04/12 18:24:51;;;;;;;5.10;1.83;;;8.40;99.30;;;;;;6262916;22;20955;-79
2023/04/12 18:27:21;;;;;;;7.87;1.47;;;8.40;99.20;;;;;;6253220;22;21033;-80
2023/04/12 18:29:50;;;;;;;4.67;1.30;;;8.40;97.50;;;;;;6263339;22;20414;-79
2023/04/12 18:32:20;;;;;;;6.63;2.40;;;8.50;98.00;;;;;;6262171;22;20472;-79
2023/04/12 18:34:50;;;;;;;4.80;1.77;;;8.50;99.00;;;;;;6262414;22;20422;-80
2023/04/12 18:37:17;;;;;;;11.40;2.63;;;8.60;97.50;;;;;;6252123;22;20411;-79
2023/04/12 18:39:48;;;;;;;6.43;1.80;;;8.60;98.30;;;;;;6253496;22;20411;-79
2023/04/12 18:42:18;;;;;;;5.13;2.10;;;8.50;99.20;;;;;;6263502;22;20914;-79
2023/04/12 18:44:45;;;;;;;6.00;2.03;;;8.50;99.90;;;;;;6262635;22;20434;-79
2023/04/12 18:47:13;;;;;;;5.60;2.20;;;8.50;99.90;;;;;;6262964;22;20403;-79
2023/04/12 18:49:40;;;;;;;7.43;2.40;;;8.50;99.90;;;;;;6263001;22;20410;-79
2023/04/12 18:52:09;;;;;;;6.03;2.67;;;8.60;99.90;;;;;;6253060;22;20410;-79
2023/04/12 18:54:37;;;;;;;4.90;2.30;;;8.50;99.90;;;;;;6262845;22;20423;-79
2023/04/12 18:57:07;;;;;;;4.43;1.50;;;8.60;99.90;;;;;;6262623;22;20434;-79
2023/04/12 18:59:36;;;;;;;5.43;2.63;;;8.50;99.80;;;;;;6287285;22;20491;-79
2023/04/12 19:02:03;;;;;;;7.23;2.03;;;8.60;99.90;;;;;;6286404;22;20433;-79
2023/04/12 19:04:35;;;;;;;4.47;1.20;;;8.20;90.70;;;;;;6286391;22;20499;-80
2023/04/12 19:07:01;;;;;;;3.50;0.80;;;7.70;87.80;;;;;;6276701;22;20448;-78
2023/04/12 19:09:28;;;;;;;9.20;1.10;;;7.10;92.20;;;;;;6276609;22;20440;-79
2023/04/12 19:11:56;;;;;;;3.93;1.30;;;6.40;99.90;;;;;;6276351;22;20453;-79
2023/04/12 19:14:24;;;;;;;9.20;1.70;;;5.80;99.90;;;;;;6248906;22;20438;-79
2023/04/12 19:16:51;;;;;;;5.50;2.03;;;5.50;99.90;;;;;;6276348;22;20735;-79
2023/04/12 19:19:22;;;;;;;7.23;1.23;;;5.50;99.90;;;;;;6286193;22;20402;-79
2023/04/12 19:21:53;;;;;;;5.57;3.87;;;5.30;99.90;;;;;;6286439;22;20759;-79
2023/04/12 19:24:21;;;;;;;11.97;11.17;;;5.30;99.90;;;;;;6275629;22;20464;-79
2023/04/12 19:26:49;;;;;;;21.57;20.07;;;5.40;99.90;;;;;;6259765;22;20407;-79
2023/04/12 19:29:18;;;;;;;39.37;37.77;;;5.30;99.90;;;;;;6275492;22;20434;-79
2023/04/12 19:34:29;;;;;;;44.00;42.30;;;5.30;99.90;;;;;;6269865;22;20446;-84
2023/04/12 19:36:57;;;;;;;41.27;39.57;;;5.20;99.90;;;;;;6275065;22;20972;-84
2023/04/12 19:39:25;;;;;;;43.07;41.37;;;5.20;99.90;;;;;;6276189;22;20481;-84
2023/04/12 19:41:52;;;;;;;78.83;76.10;;;5.10;99.90;;;;;;6276010;22;20413;-84
2023/04/12 19:44:19;;;;;;;114.77;110.60;;;5.00;99.90;;;;;;6276230;22;20835;-83
2023/04/12 19:46:47;;;;;;;128.83;124.63;;;5.20;99.90;;;;;;6276185;22;20484;-84
2023/04/12 19:49:13;;;;;;;254.83;246.97;;;5.00;99.90;;;;;;6275303;22;20430;-84
2023/04/12 19:51:40;;;;;;;235.37;228.07;;;5.10;99.90;;;;;;6275995;22;20411;-84
2023/04/12 19:54:09;;;;;;;339.93;329.13;;;5.00;99.90;;;;;;6275791;22;20434;-84
2023/04/12 19:56:36;;;;;;;434.10;419.53;;;5.00;99.90;;;;;;6276074;22;20410;-84
2023/04/12 19:59:10;;;;;;;415.67;401.60;;;5.20;99.90;;;;;;6248593;22;20957;-84
2023/04/12 20:01:46;;;;;;;359.20;347.60;;;5.30;99.90;;;;;;6276241;22;20401;-84
2023/04/12 20:04:13;;;;;;;414.60;400.50;;;5.40;99.90;;;;;;6275110;22;20430;-84
2023/04/12 20:06:42;;;;;;;384.60;371.77;;;5.60;99.90;;;;;;6275905;22;20414;-84
2023/04/12 20:09:11;;;;;;;438.13;422.73;;;5.60;99.90;;;;;;6275782;22;20468;-84
2023/04/12 20:11:38;;;;;;;491.30;473.13;;;5.70;99.90;;;;;;6275084;22;20410;-84
2023/04/12 20:14:07;;;;;;;562.00;539.30;;;5.70;99.90;;;;;;6248197;22;20495;-84
2023/04/12 20:16:34;;;;;;;608.07;582.30;;;5.80;99.90;;;;;;6275502;22;20410;-84
2023/04/12 20:19:01;;;;;;;586.87;561.80;;;5.80;99.90;;;;;;6275902;22;20434;-84
2023/04/12 20:21:30;;;;;;;623.80;596.23;;;5.80;99.90;;;;;;6275664;22;20410;-84